createdAt,value
2022-12-15T00:03:34.477Z,100241.03
2022-12-15T00:07:54.987Z,100238.41
2022-12-15T00:12:15.286Z,100241.50
2022-12-15T00:16:35.614Z,100245.94
2022-12-15T00:20:56.039Z,100240.69
2022-12-15T00:25:16.231Z,100237.16
2022-12-15T00:29:36.626Z,100239.22
2022-12-15T00:33:56.655Z,100237.50
2022-12-15T00:38:16.944Z,100242.09
2022-12-15T00:42:18.351Z,100248.59
2022-12-15T00:46:38.555Z,100230.94
2022-12-15T00:50:54.031Z,100231.44
2022-12-15T00:55:13.787Z,100235.19
2022-12-15T00:59:34.406Z,100225.50
2022-12-15T01:03:54.294Z,100231.00
2022-12-15T01:08:14.514Z,100252.22
2022-12-15T01:12:34.830Z,100244.13
2022-12-15T01:16:55.351Z,100251.75
2022-12-15T01:21:02.407Z,100247.56
2022-12-15T01:25:05.579Z,100245.03
2022-12-15T01:29:06.996Z,100249.53
2022-12-15T01:33:08.404Z,100242.34
2022-12-15T01:37:09.850Z,100228.69
2022-12-15T01:41:12.376Z,100230.56
2022-12-15T01:45:29.030Z,100231.56
2022-12-15T01:49:32.310Z,100225.94
2022-12-15T01:53:39.588Z,100233.81
2022-12-15T01:57:41.482Z,100225.72
2022-12-15T02:01:42.978Z,100226.84
2022-12-15T02:05:46.619Z,100225.69
2022-12-15T02:09:50.216Z,100219.50
2022-12-15T02:14:00.956Z,100223.81
2022-12-15T02:18:13.247Z,100222.09
2022-12-15T02:22:17.554Z,100211.97
2022-12-15T02:26:51.446Z,100211.13
2022-12-15T02:31:21.730Z,100217.28
2022-12-15T02:35:37.187Z,100221.84
2022-12-15T02:39:38.633Z,100215.66
2022-12-15T02:43:40.119Z,100208.19
2022-12-15T02:47:56.259Z,100206.50
2022-12-15T02:52:14.091Z,100225.84
2022-12-15T02:56:25.411Z,100234.88
2022-12-15T03:00:28.439Z,100238.06
2022-12-15T03:04:33.670Z,100241.09
2022-12-15T03:08:35.148Z,100232.53
2022-12-15T03:12:36.589Z,100231.63
2022-12-15T03:16:38.057Z,100252.16
2022-12-15T03:20:39.751Z,100248.63
2022-12-15T03:24:41.155Z,100248.50
2022-12-15T03:28:42.649Z,100251.41
2022-12-15T03:32:44.185Z,100254.22
2022-12-15T03:36:45.831Z,100257.88
2022-12-15T03:40:47.239Z,100268.41
2022-12-15T03:44:48.649Z,100254.56
2022-12-15T03:48:50.547Z,100245.50
2022-12-15T03:52:54.071Z,100244.28
2022-12-15T03:56:55.492Z,100241.69
2022-12-15T04:00:57.063Z,100240.44
2022-12-15T04:04:59.001Z,100247.84
2022-12-15T04:09:00.513Z,100256.03
2022-12-15T04:13:08.002Z,100268.31
2022-12-15T04:17:10.472Z,100259.69
2022-12-15T04:21:11.955Z,100269.06
2022-12-15T04:25:37.611Z,100269.94
2022-12-15T04:29:57.839Z,100286.44
2022-12-15T04:34:19.679Z,100286.16
2022-12-15T04:38:42.680Z,100291.75
2022-12-15T04:43:10.217Z,100290.63
2022-12-15T04:47:30.296Z,100293.41
2022-12-15T04:51:51.992Z,100301.38
2022-12-15T04:56:17.975Z,100305.44
2022-12-15T05:00:38.628Z,100293.84
2022-12-15T05:04:58.675Z,100304.72
2022-12-15T05:09:18.867Z,100300.47
2022-12-15T05:13:38.704Z,100309.56
2022-12-15T05:17:58.801Z,100318.59
2022-12-15T05:22:19.159Z,100317.75
2022-12-15T05:26:39.300Z,100308.38
2022-12-15T05:30:59.274Z,100319.81
2022-12-15T05:35:01.384Z,100304.28
2022-12-15T05:39:03.780Z,100293.66
2022-12-15T05:43:06.037Z,100305.75
2022-12-15T05:47:09.162Z,100317.59
2022-12-15T05:51:12.312Z,100332.31
2022-12-15T05:55:13.765Z,100335.94
2022-12-15T05:59:15.834Z,100348.88
2022-12-15T06:03:17.305Z,100363.19
2022-12-15T06:07:19.151Z,100365.44
2022-12-15T06:11:22.249Z,100376.00
2022-12-15T06:15:23.710Z,100391.56
2022-12-15T06:19:25.158Z,100382.25
2022-12-15T06:23:28.458Z,100389.63
2022-12-15T06:27:30.791Z,100373.72
2022-12-15T06:31:32.818Z,100373.47
2022-12-15T06:35:37.880Z,100379.78
2022-12-15T06:39:39.300Z,100375.56
2022-12-15T06:43:41.499Z,100375.53
2022-12-15T06:47:42.999Z,100372.38
2022-12-15T06:51:45.009Z,100390.97
2022-12-15T06:55:47.410Z,100395.53
2022-12-15T06:59:48.859Z,100394.84
2022-12-15T07:03:51.464Z,100397.44
2022-12-15T07:07:53.065Z,100404.38
2022-12-15T07:11:54.600Z,100411.03
2022-12-15T07:16:01.847Z,100408.75
2022-12-15T07:20:07.228Z,100410.78
2022-12-15T07:24:11.866Z,100417.28
2022-12-15T07:28:13.337Z,100417.47
2022-12-15T07:32:15.640Z,100404.78
2022-12-15T07:36:17.049Z,100429.97
2022-12-15T07:40:18.671Z,100457.53
2022-12-15T07:44:21.060Z,100461.47
2022-12-15T07:48:23.739Z,100477.34
2022-12-15T07:52:25.370Z,100487.84
2022-12-15T07:56:26.787Z,100482.47
2022-12-15T08:00:28.724Z,100488.03
2022-12-15T08:04:31.259Z,100489.22
2022-12-15T08:08:34.106Z,100491.16
2022-12-15T08:12:38.819Z,100495.78
2022-12-15T08:16:40.616Z,100494.88
2022-12-15T08:20:42.170Z,100509.69
2022-12-15T08:24:43.835Z,100513.50
2022-12-15T08:28:45.911Z,100514.06
2022-12-15T08:32:51.945Z,100515.53
2022-12-15T08:36:54.210Z,100521.25
2022-12-15T08:40:56.651Z,100519.09
2022-12-15T08:44:58.064Z,100535.31
2022-12-15T08:49:01.287Z,100540.66
2022-12-15T08:53:29.653Z,100535.69
2022-12-15T08:57:24.211Z,100530.88
2022-12-15T09:01:27.470Z,100530.66
2022-12-15T09:05:29.241Z,100551.75
2022-12-15T09:09:30.655Z,100544.41
2022-12-15T09:13:32.915Z,100556.91
2022-12-15T09:17:34.607Z,100559.31
2022-12-15T09:21:36.665Z,100572.63
2022-12-15T09:25:38.081Z,100580.75
2022-12-15T09:29:39.540Z,100566.66
2022-12-15T09:33:42.530Z,100563.59
2022-12-15T09:37:48.439Z,100563.09
2022-12-15T09:41:58.254Z,100578.00
2022-12-15T09:46:06.695Z,100581.53
2022-12-15T09:50:15.315Z,100586.66
2022-12-15T09:54:16.769Z,100592.03
2022-12-15T09:58:41.879Z,100576.34
2022-12-15T10:03:20.552Z,100577.72
2022-12-15T10:07:34.687Z,100596.41
2022-12-15T10:12:08.581Z,100586.66
2022-12-15T10:16:43.326Z,100585.44
2022-12-15T10:20:44.905Z,100585.84
2022-12-15T10:29:40.075Z,100575.69
2022-12-15T10:33:47.102Z,100590.97
2022-12-15T10:37:50.324Z,100588.03
2022-12-15T10:42:14.335Z,100586.38
2022-12-15T10:46:19.980Z,100579.47
2022-12-15T10:50:25.027Z,100576.53
2022-12-15T10:54:48.490Z,100590.78
2022-12-15T10:58:52.798Z,100596.28
2022-12-15T11:02:54.753Z,100599.91
2022-12-15T11:06:59.441Z,100593.78
2022-12-15T11:11:19.701Z,100593.34
2022-12-15T11:15:21.110Z,100604.22
2022-12-15T11:19:40.492Z,100595.72
2022-12-15T11:23:51.625Z,100589.81
2022-12-15T11:27:57.313Z,100592.91
2022-12-15T11:32:04.800Z,100605.78
2022-12-15T11:36:24.495Z,100604.81
2022-12-15T11:40:41.183Z,100619.19
2022-12-15T11:45:01.449Z,100620.94
2022-12-15T11:49:18.163Z,100630.34
2022-12-15T11:53:49.797Z,100631.81
2022-12-15T11:58:08.379Z,100662.81
2022-12-15T12:02:32.325Z,100669.06
2022-12-15T12:06:55.757Z,100666.69
2022-12-15T12:11:16.868Z,100668.59
2022-12-15T12:15:33.510Z,100664.06
2022-12-15T12:19:38.098Z,100661.34
2022-12-15T12:23:55.893Z,100657.50
2022-12-15T12:28:06.231Z,100655.28
2022-12-15T12:32:23.574Z,100655.84
2022-12-15T12:36:25.036Z,100653.69
2022-12-15T12:40:45.154Z,100643.88
2022-12-15T12:44:46.840Z,100633.47
2022-12-15T12:49:22.805Z,100644.50
2022-12-15T12:53:33.459Z,100649.94
2022-12-15T12:57:38.364Z,100653.41
2022-12-15T13:01:40.081Z,100662.00
2022-12-15T13:05:42.910Z,100657.88
2022-12-15T13:09:44.522Z,100652.88
2022-12-15T13:13:53.047Z,100644.56
2022-12-15T13:18:00.446Z,100639.34
2022-12-15T13:22:02.523Z,100650.41
2022-12-15T13:26:05.911Z,100646.69
2022-12-15T13:30:07.363Z,100636.09
2022-12-15T13:34:14.581Z,100631.91
2022-12-15T13:38:19.458Z,100639.47
2022-12-15T13:42:45.389Z,100639.13
2022-12-15T13:46:53.033Z,100638.03
2022-12-15T13:51:34.115Z,100639.03
2022-12-15T13:55:39.239Z,100650.66
2022-12-15T13:59:49.463Z,100654.72
2022-12-15T14:04:21.450Z,100677.84
2022-12-15T14:08:25.771Z,100672.84
2022-12-15T14:12:27.366Z,100674.28
2022-12-15T14:16:33.752Z,100673.84
2022-12-15T14:20:40.509Z,100669.22
2022-12-15T14:24:50.625Z,100679.50
2022-12-15T14:29:01.583Z,100676.69
2022-12-15T14:33:07.997Z,100685.69
2022-12-15T14:37:17.305Z,100699.13
2022-12-15T14:41:28.141Z,100709.38
2022-12-15T14:45:32.357Z,100703.03
2022-12-15T14:49:42.991Z,100718.75
2022-12-15T14:53:49.631Z,100713.44
2022-12-15T14:57:55.059Z,100718.72
2022-12-15T15:02:19.744Z,100728.22
2022-12-15T15:06:22.282Z,100731.44
2022-12-15T15:10:29.147Z,100724.03
2022-12-15T15:14:33.829Z,100731.13
2022-12-15T15:18:35.483Z,100729.59
2022-12-15T15:22:47.993Z,100731.47
2022-12-15T15:26:49.502Z,100731.22
2022-12-15T15:30:57.312Z,100734.41
2022-12-15T15:34:58.799Z,100727.34
2022-12-15T15:39:01.793Z,100723.78
2022-12-15T16:03:37.976Z,100759.34
2022-12-15T16:07:40.543Z,100755.34
2022-12-15T16:11:43.001Z,100758.84
2022-12-15T16:15:44.841Z,100758.19
2022-12-15T16:19:46.513Z,100761.69
2022-12-15T16:23:48.731Z,100762.31
2022-12-15T16:27:50.142Z,100758.16
2022-12-15T16:31:51.649Z,100756.25
2022-12-15T16:35:53.816Z,100754.72
2022-12-15T16:39:55.331Z,100756.38
2022-12-15T16:43:56.781Z,100758.03
2022-12-15T16:47:58.469Z,100769.75
2022-12-15T16:51:59.900Z,100775.63
2022-12-15T16:56:04.525Z,100776.19
2022-12-15T17:00:18.425Z,100777.06
2022-12-15T17:04:21.346Z,100778.38
2022-12-15T17:08:33.279Z,100779.41
2022-12-15T17:12:35.171Z,100777.66
2022-12-15T17:16:36.871Z,100795.53
2022-12-15T17:20:38.362Z,100795.53
2022-12-15T17:24:42.005Z,100791.19
2022-12-15T17:28:43.490Z,100800.22
2022-12-15T17:32:45.654Z,100807.81
2022-12-15T17:36:47.221Z,100817.91
2022-12-15T17:40:50.288Z,100814.78
2022-12-15T17:44:52.059Z,100812.38
2022-12-15T17:48:53.611Z,100818.13
2022-12-15T17:52:55.067Z,100817.81
2022-12-15T17:56:56.464Z,100818.28
2022-12-15T18:00:57.947Z,100828.84
2022-12-15T18:04:59.562Z,100827.13
2022-12-15T18:09:01.106Z,100822.41
2022-12-15T18:13:03.059Z,100824.78
2022-12-15T18:17:05.506Z,100830.66
2022-12-15T18:21:16.440Z,100824.41
2022-12-15T18:25:26.741Z,100827.06
2022-12-15T18:29:28.254Z,100834.94
2022-12-15T18:33:30.890Z,100840.25
2022-12-15T18:37:34.238Z,100856.31
2022-12-15T18:41:35.702Z,100867.16
2022-12-15T18:45:37.144Z,100870.19
2022-12-15T18:49:38.692Z,100872.19
2022-12-15T18:53:41.021Z,100872.47
2022-12-15T18:57:42.515Z,100873.97
2022-12-15T19:01:45.951Z,100889.78
2022-12-15T19:05:49.418Z,100896.16
2022-12-15T19:09:50.999Z,100897.84
2022-12-15T19:13:52.438Z,100895.47
2022-12-15T19:18:12.819Z,100902.28
2022-12-15T19:22:29.889Z,100909.44
2022-12-15T19:26:31.705Z,100916.97
2022-12-15T19:30:38.489Z,100923.78
2022-12-15T19:34:43.395Z,100920.47
2022-12-15T19:38:46.680Z,100923.78
2022-12-15T19:42:49.217Z,100928.00
2022-12-15T19:46:50.662Z,100938.19
2022-12-15T19:50:52.526Z,100937.66
2022-12-15T19:54:56.637Z,100946.53
2022-12-15T19:58:58.058Z,100938.75
2022-12-15T20:02:59.576Z,100944.22
2022-12-15T20:07:03.799Z,100941.41
2022-12-15T20:11:05.378Z,100947.63
2022-12-15T20:15:20.297Z,100951.38
2022-12-15T20:19:21.773Z,100961.69
2022-12-15T20:23:26.356Z,100960.91
2022-12-15T20:27:28.293Z,100970.50
2022-12-15T20:31:30.023Z,100959.41
2022-12-15T20:35:34.618Z,100969.09
2022-12-15T20:39:36.273Z,100963.19
2022-12-15T20:43:37.709Z,100966.84
2022-12-15T20:47:40.785Z,100965.63
2022-12-15T20:51:42.236Z,100968.25
2022-12-15T20:55:43.949Z,100973.09
2022-12-15T20:59:45.406Z,100970.81
2022-12-15T21:03:48.094Z,100980.16
2022-12-15T21:07:50.214Z,100985.53
2022-12-15T21:11:53.942Z,100981.75
2022-12-15T21:15:56.227Z,100988.06
2022-12-15T21:19:57.727Z,100986.78
2022-12-15T21:24:01.356Z,100993.19
2022-12-15T21:28:02.756Z,100997.47
2022-12-15T21:32:04.219Z,101004.09
2022-12-15T21:36:05.988Z,100997.00
2022-12-15T21:40:08.236Z,101000.84
2022-12-15T21:44:14.676Z,101003.72
2022-12-15T21:48:35.111Z,100997.78
2022-12-15T21:52:37.672Z,100992.84
2022-12-15T21:56:39.299Z,100988.63
2022-12-15T22:00:45.406Z,100995.97
2022-12-15T22:04:48.747Z,100997.13
2022-12-15T22:08:52.354Z,100980.00
2022-12-15T22:17:19.213Z,100978.66
2022-12-15T22:21:21.233Z,100975.84
2022-12-15T22:25:25.014Z,100969.94
2022-12-15T22:29:27.665Z,100986.53
2022-12-15T22:33:29.157Z,100979.38
2022-12-15T22:37:30.722Z,100972.94
2022-12-15T22:41:32.901Z,100964.22
2022-12-15T22:45:38.260Z,100978.88
2022-12-15T22:49:42.720Z,100981.22
2022-12-15T22:53:44.746Z,100980.75
2022-12-15T22:58:15.472Z,100980.28
2022-12-15T23:02:17.089Z,100990.59
2022-12-15T23:06:18.746Z,101002.63
2022-12-15T23:10:39.105Z,101009.66
2022-12-15T23:14:59.283Z,101009.34
2022-12-15T23:19:01.602Z,101017.69
2022-12-15T23:23:03.238Z,101023.06
2022-12-15T23:27:04.910Z,101028.53
2022-12-15T23:31:06.885Z,101026.63
2022-12-15T23:35:08.752Z,101036.06
2022-12-15T23:39:10.177Z,101037.78
2022-12-15T23:43:12.526Z,101037.31
2022-12-15T23:47:14.017Z,101054.72
2022-12-15T23:51:20.323Z,101063.44
2022-12-15T23:55:21.807Z,101058.97
2022-12-15T23:59:23.337Z,101068.69
